首页
METAR-TAF:

METAR-TAF

机场 :

普拉, 克罗地亚

纬度: 44-54N, 经度: 013-55E, 海拔: 63米

当前天气观测

该预报发布于35分钟前的12:30 UTC
风速6节,风向西南,在东转东南西之间变化
温度 18°C
湿度 68%
气压 1024 hPa
能见度10公里或以上
少量云层高于2500英尺

METAR: LDPL 211230Z 22006KT 120V260 9999 FEW025 18/12 Q1024 NOSIG

时间: 15:05 (13:05 UTC)

预报

该预报发布于1小时和40分钟前的11:25 UTC
预报有效从21日的 12点(UTC)到 22日的 12点(UTC)
风速9节,风向西南
能见度10公里或以上
少量云层高于2500英尺
成为
从 21日的 16点(UTC)到 21日的 18点(UTC)
风速2节,风向多变
几率 30% :
短暂存在
从 22日的 00点(UTC)到 22日的 06点(UTC)
能見度: 4000
浅雾, 轻雾
成为
从 22日的 09点(UTC)到 22日的 11点(UTC)
风速7节,风向西转西南

TAF: LDPL 211125Z 2112/2212 22009KT 9999 FEW025 TX19/2112Z TN09/2205Z BECMG 2116/2118 VRB02KT PROB30 TEMPO 2200/2206 4000 MIFG BR BECMG 2209/2211 24007KT

超过4000个机场的气象观测和天气预报(METAR&TAF报告)。

可查询的气象台以黄色和红色小点在地图上表示。

将鼠标移到小点上方,可查看气象台名称。

然后点击查看天气观测和预报。

如需切换地图:点击带黑十字的绿色按钮放大地图;点击带横线的绿色按钮缩小地图;或者点击绿色箭头查看邻近地区的地图。


METAR-TAF: